createdAt,value
2023-02-05T00:00:39.748Z,7.78
2023-02-05T00:03:06.323Z,8.30
2023-02-05T00:05:33.227Z,8.77
2023-02-05T00:07:59.839Z,8.23
2023-02-05T00:10:26.504Z,7.97
2023-02-05T00:12:52.952Z,8.27
2023-02-05T00:15:19.476Z,8.90
2023-02-05T00:17:45.944Z,8.57
2023-02-05T00:20:12.368Z,6.60
2023-02-05T00:22:38.794Z,7.40
2023-02-05T00:25:05.744Z,8.82
2023-02-05T00:27:33.497Z,8.60
2023-02-05T00:29:59.931Z,8.10
2023-02-05T00:32:26.357Z,7.10
2023-02-05T00:34:52.914Z,7.60
2023-02-05T00:37:19.354Z,7.25
2023-02-05T00:39:45.803Z,9.32
2023-02-05T00:42:12.250Z,9.02
2023-02-05T00:44:38.665Z,8.55
2023-02-05T00:47:05.210Z,8.10
2023-02-05T00:49:31.706Z,8.80
2023-02-05T00:51:58.143Z,12.15
2023-02-05T00:54:24.864Z,9.27
2023-02-05T00:56:51.300Z,8.23
2023-02-05T00:59:17.716Z,9.23
2023-02-05T01:01:44.164Z,8.85
2023-02-05T01:04:10.872Z,12.18
2023-02-05T01:06:37.308Z,12.60
2023-02-05T01:09:03.843Z,10.18
2023-02-05T01:11:30.314Z,9.48
2023-02-05T01:13:56.747Z,11.55
2023-02-05T01:16:23.599Z,10.82
2023-02-05T01:18:50.082Z,9.77
2023-02-05T01:21:16.713Z,10.45
2023-02-05T01:23:43.108Z,9.20
2023-02-05T01:26:09.580Z,10.13
2023-02-05T01:28:36.014Z,9.85
2023-02-05T01:31:02.542Z,10.27
2023-02-05T01:33:29.050Z,10.23
2023-02-05T01:35:55.482Z,10.73
2023-02-05T01:38:21.933Z,9.35
2023-02-05T01:40:48.347Z,11.43
2023-02-05T01:43:17.025Z,9.80
2023-02-05T01:46:05.281Z,9.68
2023-02-05T01:48:37.599Z,9.27
2023-02-05T01:51:09.071Z,10.50
2023-02-05T01:53:37.524Z,11.43
2023-02-05T01:56:14.713Z,10.70
2023-02-05T01:58:48.622Z,10.43
2023-02-05T02:01:15.383Z,10.57
2023-02-05T02:03:41.968Z,10.70
2023-02-05T02:06:08.496Z,10.52
2023-02-05T02:08:34.936Z,9.90
2023-02-05T02:11:04.783Z,9.93
2023-02-05T02:13:33.632Z,8.88
2023-02-05T02:16:00.470Z,8.90
2023-02-05T02:18:28.146Z,10.30
2023-02-05T02:21:12.938Z,10.43
2023-02-05T02:23:58.138Z,10.80
2023-02-05T02:27:01.769Z,9.98
2023-02-05T02:29:58.905Z,10.50
2023-02-05T02:32:37.022Z,10.30
2023-02-05T02:35:15.346Z,9.93
2023-02-05T02:38:09.384Z,9.40
2023-02-05T02:40:50.137Z,10.05
2023-02-05T02:43:25.448Z,10.32
2023-02-05T02:46:04.048Z,11.38
2023-02-05T02:48:33.390Z,9.75
2023-02-05T02:51:01.882Z,10.77
2023-02-05T02:53:34.722Z,11.85
2023-02-05T02:56:03.975Z,10.68
2023-02-05T02:58:39.185Z,10.20
2023-02-05T03:01:08.320Z,10.85
2023-02-05T03:03:40.795Z,10.18
2023-02-05T03:06:09.964Z,10.10
2023-02-05T03:08:53.709Z,12.13
2023-02-05T03:11:20.562Z,10.35
2023-02-05T03:13:48.221Z,10.85
2023-02-05T03:16:18.341Z,11.80
2023-02-05T03:18:45.504Z,10.32
2023-02-05T03:21:25.419Z,10.88
2023-02-05T03:23:52.384Z,9.57
2023-02-05T03:26:35.182Z,9.60
2023-02-05T03:29:08.609Z,10.68
2023-02-05T03:31:57.086Z,9.93
2023-02-05T03:37:13.604Z,13.05
2023-02-05T03:40:05.998Z,17.90
2023-02-05T03:42:50.587Z,13.50
2023-02-05T03:45:25.986Z,14.43
2023-02-05T03:48:30.331Z,13.40
2023-02-05T03:51:05.717Z,10.93
2023-02-05T03:53:54.348Z,11.93
2023-02-05T03:56:39.097Z,10.23
2023-02-05T03:59:06.874Z,10.18
2023-02-05T04:01:34.927Z,10.82
2023-02-05T04:04:01.333Z,10.43
2023-02-05T04:06:27.881Z,10.93
2023-02-05T04:08:54.320Z,11.30
2023-02-05T04:11:21.948Z,10.05
2023-02-05T04:13:48.426Z,10.95
2023-02-05T04:16:14.905Z,11.00
2023-02-05T04:18:41.437Z,10.57
2023-02-05T04:21:07.849Z,9.88
2023-02-05T04:23:34.293Z,9.35
2023-02-05T04:26:00.840Z,10.15
2023-02-05T04:28:27.286Z,8.88
2023-02-05T04:30:53.752Z,9.35
2023-02-05T04:33:20.485Z,11.85
2023-02-05T04:35:46.933Z,15.15
2023-02-05T04:38:13.420Z,15.48
2023-02-05T04:40:39.832Z,14.23
2023-02-05T04:43:06.272Z,13.55
2023-02-05T04:45:33.596Z,13.52
2023-02-05T04:48:00.646Z,10.48
2023-02-05T04:50:27.439Z,10.98
2023-02-05T04:52:54.048Z,11.48
2023-02-05T04:55:20.502Z,11.80
2023-02-05T04:57:46.952Z,11.30
2023-02-05T05:00:14.075Z,13.40
2023-02-05T05:02:40.610Z,12.68
2023-02-05T05:05:07.581Z,12.40
2023-02-05T05:07:34.129Z,11.50
2023-02-05T05:10:00.549Z,10.80
2023-02-05T05:12:27.020Z,10.57
2023-02-05T05:14:53.473Z,11.20
2023-02-05T05:17:19.899Z,10.85
2023-02-05T05:19:46.413Z,11.18
2023-02-05T05:22:12.922Z,11.48
2023-02-05T05:24:39.360Z,13.68
2023-02-05T05:27:06.019Z,11.93
2023-02-05T05:29:32.710Z,12.95
2023-02-05T05:31:59.245Z,13.23
2023-02-05T05:34:25.830Z,12.57
2023-02-05T05:36:53.428Z,11.73
2023-02-05T05:39:38.628Z,10.77
2023-02-05T05:42:23.891Z,10.32
2023-02-05T05:44:52.157Z,10.45
2023-02-05T05:49:45.552Z,12.20
2023-02-05T05:52:12.297Z,13.63
2023-02-05T05:54:38.827Z,13.20
2023-02-05T05:57:07.080Z,12.90
2023-02-05T06:02:03.639Z,11.40
2023-02-05T06:04:30.580Z,12.70
2023-02-05T06:06:57.138Z,14.32
2023-02-05T06:09:24.012Z,14.55
2023-02-05T06:11:51.325Z,13.32
2023-02-05T06:14:17.774Z,12.70
2023-02-05T06:16:44.223Z,11.98
2023-02-05T06:19:10.695Z,13.57
2023-02-05T06:21:37.097Z,12.82
2023-02-05T06:24:03.676Z,13.77
2023-02-05T06:26:30.090Z,15.68
2023-02-05T06:28:57.458Z,13.25
2023-02-05T06:31:24.275Z,12.73
2023-02-05T06:33:50.897Z,12.50
2023-02-05T06:36:17.445Z,13.45
2023-02-05T06:38:44.070Z,14.23
2023-02-05T06:41:10.512Z,13.10
2023-02-05T06:43:36.883Z,16.52
2023-02-05T06:46:03.575Z,13.05
2023-02-05T06:48:30.257Z,13.02
2023-02-05T06:50:56.683Z,18.70
2023-02-05T06:53:23.199Z,13.85
2023-02-05T06:55:49.659Z,13.98
2023-02-05T06:58:16.137Z,14.50
2023-02-05T07:00:43.076Z,14.63
2023-02-05T07:03:09.561Z,13.48
2023-02-05T07:05:36.319Z,11.77
2023-02-05T07:08:04.145Z,11.18
2023-02-05T07:10:30.703Z,12.00
2023-02-05T07:12:57.319Z,12.27
2023-02-05T07:15:23.807Z,12.55
2023-02-05T07:17:50.328Z,10.40
2023-02-05T07:20:16.863Z,11.55
2023-02-05T07:22:43.311Z,11.38
2023-02-05T07:25:09.854Z,10.10
2023-02-05T07:27:36.304Z,11.00
2023-02-05T07:30:03.019Z,9.73
2023-02-05T07:32:29.403Z,9.80
2023-02-05T07:34:55.889Z,11.38
2023-02-05T07:37:22.271Z,11.57
2023-02-05T07:39:48.664Z,10.38
2023-02-05T07:42:15.439Z,10.45
2023-02-05T07:44:41.928Z,9.55
2023-02-05T07:47:08.342Z,10.23
2023-02-05T07:49:34.822Z,9.35
2023-02-05T07:52:01.333Z,9.50
2023-02-05T07:54:27.748Z,8.82
2023-02-05T07:56:55.404Z,8.27
2023-02-05T07:59:21.817Z,8.02
2023-02-05T08:01:48.274Z,7.75
2023-02-05T08:04:14.773Z,10.88
2023-02-05T08:06:41.160Z,8.75
2023-02-05T08:09:07.644Z,9.25
2023-02-05T08:11:34.071Z,9.27
2023-02-05T08:14:01.053Z,9.20
2023-02-05T08:16:27.615Z,9.02
2023-02-05T08:18:54.401Z,8.68
2023-02-05T08:21:21.857Z,8.93
2023-02-05T08:23:49.390Z,11.82
2023-02-05T08:26:16.880Z,10.05
2023-02-05T08:28:44.014Z,8.75
2023-02-05T08:31:17.297Z,8.98
2023-02-05T08:33:44.428Z,8.20
2023-02-05T08:36:11.479Z,8.60
2023-02-05T08:38:38.178Z,8.45
2023-02-05T08:41:12.575Z,8.50
2023-02-05T08:43:41.009Z,9.40
2023-02-05T08:46:08.579Z,8.38
2023-02-05T08:48:35.443Z,8.45
2023-02-05T08:51:02.156Z,7.85
2023-02-05T08:53:28.549Z,8.40
2023-02-05T08:56:00.434Z,8.30
2023-02-05T08:58:27.947Z,6.82
2023-02-05T09:01:04.837Z,8.73
2023-02-05T09:03:31.973Z,8.15
2023-02-05T09:05:59.294Z,7.07
2023-02-05T09:08:27.383Z,6.93
2023-02-05T09:13:20.347Z,7.13
2023-02-05T09:15:48.679Z,7.10
2023-02-05T09:18:15.592Z,7.30
2023-02-05T09:20:48.537Z,6.75
2023-02-05T09:23:17.124Z,6.00
2023-02-05T09:25:44.096Z,5.72
2023-02-05T09:28:13.087Z,6.75
2023-02-05T09:30:44.185Z,5.80
2023-02-05T09:33:11.962Z,6.88
2023-02-05T09:35:38.574Z,7.65
2023-02-05T09:38:05.675Z,6.70
2023-02-05T09:40:39.706Z,6.22
2023-02-05T09:43:27.622Z,5.80
2023-02-05T09:46:03.250Z,6.68
2023-02-05T09:48:46.773Z,5.90
2023-02-05T09:51:13.377Z,5.90
2023-02-05T09:53:44.401Z,7.25
2023-02-05T09:56:16.688Z,5.97
2023-02-05T09:58:47.807Z,6.03
2023-02-05T10:01:36.124Z,5.80
2023-02-05T10:07:00.590Z,5.93
2023-02-05T10:09:38.697Z,6.78
2023-02-05T10:12:11.136Z,7.15
2023-02-05T10:14:59.250Z,6.72
2023-02-05T10:17:46.597Z,5.82
2023-02-05T10:20:21.294Z,7.95
2023-02-05T10:23:12.269Z,7.30
2023-02-05T10:25:50.086Z,7.22
2023-02-05T10:28:22.269Z,8.20
2023-02-05T10:30:57.504Z,10.82
2023-02-05T10:33:49.147Z,7.65
2023-02-05T10:36:20.709Z,7.03
2023-02-05T10:38:49.759Z,6.53
2023-02-05T10:41:31.955Z,7.03
2023-02-05T10:44:11.208Z,8.05
2023-02-05T10:46:39.614Z,7.03
2023-02-05T10:49:30.935Z,7.45
2023-02-05T10:51:57.726Z,7.35
2023-02-05T10:54:30.310Z,7.20
2023-02-05T10:56:58.332Z,8.45
2023-02-05T10:59:29.066Z,7.28
2023-02-05T11:02:01.127Z,7.47
2023-02-05T11:04:42.211Z,8.32
2023-02-05T11:07:13.936Z,7.72
2023-02-05T11:09:40.405Z,6.32
2023-02-05T11:12:19.394Z,6.80
2023-02-05T11:14:55.245Z,8.25
2023-02-05T11:17:31.136Z,6.40
2023-02-05T11:20:22.851Z,6.78
2023-02-05T11:22:49.804Z,7.38
2023-02-05T11:25:29.838Z,6.97
2023-02-05T11:28:05.609Z,7.85
2023-02-05T11:30:52.409Z,6.45
2023-02-05T11:33:26.239Z,5.95
2023-02-05T11:35:57.559Z,6.50
2023-02-05T11:38:33.518Z,6.00
2023-02-05T11:41:04.364Z,5.22
2023-02-05T11:43:37.596Z,6.78
2023-02-05T11:46:09.555Z,6.15
2023-02-05T11:48:59.141Z,6.65
2023-02-05T11:51:36.230Z,7.38
2023-02-05T11:54:07.487Z,6.70
2023-02-05T11:56:33.942Z,6.65
2023-02-05T11:59:02.426Z,6.38
2023-02-05T12:01:34.307Z,6.45
2023-02-05T12:04:16.769Z,6.18
2023-02-05T12:06:53.880Z,5.85
2023-02-05T12:09:23.296Z,6.30
2023-02-05T12:12:18.412Z,6.47
2023-02-05T12:17:40.016Z,4.35
2023-02-05T12:20:09.784Z,5.22
2023-02-05T12:22:54.226Z,5.07
2023-02-05T12:25:23.817Z,5.50
2023-02-05T12:28:16.991Z,4.75
2023-02-05T12:30:50.714Z,5.00
2023-02-05T12:33:28.618Z,5.55
2023-02-05T12:36:15.537Z,5.13
2023-02-05T12:39:09.502Z,4.75
2023-02-05T12:42:11.632Z,6.78
2023-02-05T12:44:58.504Z,5.00
2023-02-05T12:47:46.010Z,4.78
2023-02-05T12:50:32.113Z,4.93
2023-02-05T12:53:27.763Z,5.70
2023-02-05T12:56:03.270Z,5.88
2023-02-05T12:58:41.692Z,5.32
2023-02-05T13:01:16.467Z,5.00
2023-02-05T13:06:31.124Z,5.30
2023-02-05T13:09:13.501Z,5.05
2023-02-05T13:11:56.370Z,5.55
2023-02-05T13:14:29.083Z,5.20
2023-02-05T13:17:04.472Z,4.47
2023-02-05T13:19:41.081Z,4.78
2023-02-05T13:22:35.934Z,3.95
2023-02-05T13:25:38.262Z,4.43
2023-02-05T13:28:41.484Z,3.60
2023-02-05T13:31:42.138Z,4.68
2023-02-05T13:34:12.988Z,4.80
2023-02-05T13:37:00.251Z,4.50
2023-02-05T13:39:53.078Z,4.70
2023-02-05T13:42:44.956Z,4.47
2023-02-05T13:45:22.598Z,5.07
2023-02-05T13:48:16.805Z,5.15
2023-02-05T13:51:06.830Z,5.53
2023-02-05T13:53:58.446Z,5.13
2023-02-05T13:56:48.286Z,4.85
2023-02-05T13:59:34.056Z,5.40
2023-02-05T14:02:01.809Z,5.30
2023-02-05T14:04:37.417Z,4.95
2023-02-05T14:07:23.809Z,4.38
2023-02-05T14:09:56.595Z,5.10
2023-02-05T14:12:27.101Z,4.78
2023-02-05T14:15:15.374Z,4.90
2023-02-05T14:17:44.714Z,4.53
2023-02-05T14:20:26.415Z,4.00
2023-02-05T14:23:03.420Z,4.20
2023-02-05T14:25:36.850Z,4.65
2023-02-05T14:28:03.573Z,4.35
2023-02-05T14:30:30.425Z,4.75
2023-02-05T14:33:02.965Z,4.28
2023-02-05T14:35:38.103Z,4.75
2023-02-05T14:38:21.284Z,4.50
2023-02-05T14:41:03.938Z,4.38
2023-02-05T14:43:35.993Z,3.97
2023-02-05T14:46:07.471Z,3.65
2023-02-05T14:48:41.314Z,4.20
2023-02-05T14:51:17.237Z,3.58
2023-02-05T14:53:57.775Z,3.63
2023-02-05T14:56:33.808Z,3.33
2023-02-05T14:59:18.982Z,3.08
2023-02-05T15:01:50.152Z,3.00
2023-02-05T15:04:42.462Z,2.55
2023-02-05T15:07:21.909Z,3.20
2023-02-05T15:09:59.776Z,3.00
2023-02-05T15:12:47.962Z,2.30
2023-02-05T15:15:29.363Z,2.63
2023-02-05T15:18:02.298Z,2.92
2023-02-05T15:20:32.525Z,2.80
2023-02-05T15:23:17.823Z,2.97
2023-02-05T15:25:52.876Z,2.17
2023-02-05T15:28:58.013Z,2.85
2023-02-05T15:31:33.895Z,2.40
2023-02-05T15:34:21.841Z,2.75
2023-02-05T15:37:00.592Z,2.80
2023-02-05T15:39:34.094Z,2.33
2023-02-05T15:42:02.856Z,2.45
2023-02-05T15:44:33.017Z,2.42
2023-02-05T15:47:02.852Z,3.28
2023-02-05T15:49:38.004Z,3.10
2023-02-05T15:52:05.735Z,2.88
2023-02-05T15:54:35.372Z,3.22
2023-02-05T15:57:04.303Z,3.70
2023-02-05T15:59:32.729Z,3.80
2023-02-05T16:02:05.788Z,3.58
2023-02-05T16:04:38.137Z,3.53
2023-02-05T16:07:21.932Z,3.78
2023-02-05T16:09:52.773Z,3.78
2023-02-05T16:12:19.693Z,4.05
2023-02-05T16:14:46.756Z,5.65
2023-02-05T16:17:27.858Z,4.10
2023-02-05T16:20:23.366Z,5.13
2023-02-05T16:22:55.473Z,4.18
2023-02-05T16:25:31.185Z,4.32
2023-02-05T16:28:01.135Z,4.95
2023-02-05T16:30:42.858Z,4.70
2023-02-05T16:35:55.553Z,4.00
2023-02-05T16:38:23.246Z,4.32
2023-02-05T16:40:53.753Z,4.22
2023-02-05T16:43:26.916Z,4.03
2023-02-05T16:46:08.875Z,4.15
2023-02-05T16:48:47.990Z,3.92
2023-02-05T16:51:27.926Z,4.60
2023-02-05T16:53:54.407Z,4.43
2023-02-05T16:56:25.140Z,5.28
2023-02-05T16:58:55.483Z,6.72
2023-02-05T17:01:24.622Z,6.53
2023-02-05T17:03:51.545Z,5.40
2023-02-05T17:06:18.879Z,5.35
2023-02-05T17:08:52.563Z,9.18
2023-02-05T17:11:38.090Z,25.58
2023-02-05T17:14:32.496Z,8.10
2023-02-05T17:17:14.803Z,7.22
2023-02-05T17:19:41.328Z,7.85
2023-02-05T17:22:13.991Z,7.57
2023-02-05T17:24:46.449Z,7.55
2023-02-05T17:27:35.729Z,8.35
2023-02-05T17:30:04.454Z,11.60
2023-02-05T17:32:32.356Z,16.05
2023-02-05T17:35:00.116Z,11.55
2023-02-05T17:37:26.582Z,10.15
2023-02-05T17:39:53.766Z,9.73
2023-02-05T17:42:22.729Z,9.02
2023-02-05T17:44:49.753Z,13.95
2023-02-05T17:47:16.429Z,8.73
2023-02-05T17:49:43.149Z,9.23
2023-02-05T17:52:10.804Z,9.15
2023-02-05T17:54:37.680Z,8.45
2023-02-05T17:57:16.164Z,7.47
2023-02-05T17:59:45.102Z,7.13
2023-02-05T18:02:12.957Z,9.32
2023-02-05T18:04:40.168Z,8.73
2023-02-05T18:07:30.787Z,8.57
2023-02-05T18:09:58.223Z,7.63
2023-02-05T18:12:24.946Z,9.93
2023-02-05T18:14:51.477Z,10.30
2023-02-05T18:17:18.075Z,8.93
2023-02-05T18:19:44.546Z,10.82
2023-02-05T18:22:11.572Z,10.32
2023-02-05T18:24:39.138Z,8.40
2023-02-05T18:27:11.231Z,9.02
2023-02-05T18:29:38.768Z,13.43
2023-02-05T18:32:06.263Z,11.63
2023-02-05T18:34:32.953Z,11.40
2023-02-05T18:36:59.808Z,11.40
2023-02-05T18:39:29.520Z,9.63
2023-02-05T18:41:57.116Z,10.88
2023-02-05T18:44:23.822Z,9.52
2023-02-05T18:46:50.464Z,15.88
2023-02-05T18:49:16.898Z,17.38
2023-02-05T18:51:43.665Z,18.10
2023-02-05T18:54:10.139Z,15.40
2023-02-05T18:56:38.160Z,15.80
2023-02-05T18:59:06.957Z,17.23
2023-02-05T19:01:36.230Z,13.00
2023-02-05T19:04:08.737Z,11.15
2023-02-05T19:06:35.816Z,13.63
2023-02-05T19:09:03.725Z,13.73
2023-02-05T19:11:30.927Z,12.30
2023-02-05T19:14:00.273Z,12.15
2023-02-05T19:16:27.614Z,13.85
2023-02-05T19:18:54.697Z,13.75
2023-02-05T19:21:22.464Z,13.07
2023-02-05T19:23:51.923Z,15.05
2023-02-05T19:26:20.990Z,14.55
2023-02-05T19:28:55.745Z,17.25
2023-02-05T19:31:23.865Z,17.98
2023-02-05T19:36:16.960Z,16.65
2023-02-05T19:38:43.382Z,17.35
2023-02-05T19:41:15.182Z,15.07
2023-02-05T19:43:49.831Z,16.88
2023-02-05T19:46:18.671Z,15.90
2023-02-05T19:48:45.723Z,14.10
2023-02-05T19:51:13.383Z,17.98
2023-02-05T19:53:41.599Z,15.90
2023-02-05T19:58:37.315Z,17.60
2023-02-05T20:03:41.082Z,15.73
2023-02-05T20:06:09.358Z,16.77
2023-02-05T20:11:03.373Z,12.63
2023-02-05T20:13:31.572Z,16.88
2023-02-05T20:16:19.185Z,16.63
2023-02-05T20:18:47.030Z,16.20
2023-02-05T20:21:18.790Z,15.65
2023-02-05T20:23:47.180Z,15.00
2023-02-05T20:29:08.834Z,13.65
2023-02-05T20:31:46.519Z,12.63
2023-02-05T20:34:18.747Z,13.77
2023-02-05T20:36:48.103Z,12.73
2023-02-05T20:39:17.167Z,12.55
2023-02-05T20:41:45.429Z,12.48
2023-02-05T20:46:38.442Z,11.10
2023-02-05T20:49:05.021Z,12.02
2023-02-05T20:51:31.840Z,12.98
2023-02-05T20:53:59.344Z,12.73
2023-02-05T20:56:27.718Z,12.65
2023-02-05T21:01:23.961Z,13.50
2023-02-05T21:03:53.266Z,12.43
2023-02-05T21:06:22.065Z,13.68
2023-02-05T21:08:50.720Z,13.30
2023-02-05T21:11:19.009Z,13.23
2023-02-05T21:13:47.193Z,12.85
2023-02-05T21:18:40.895Z,9.73
2023-02-05T21:21:11.014Z,10.38
2023-02-05T21:23:37.592Z,11.70
2023-02-05T21:26:05.591Z,10.93
2023-02-05T21:28:33.066Z,11.30
2023-02-05T21:31:08.493Z,11.23
2023-02-05T21:33:35.960Z,11.23
2023-02-05T21:36:04.882Z,10.75
2023-02-05T21:38:34.816Z,11.50
2023-02-05T21:41:09.854Z,12.05
2023-02-05T21:46:08.465Z,10.98
2023-02-05T21:48:35.079Z,12.65
2023-02-05T21:51:07.305Z,13.57
2023-02-05T21:53:33.765Z,11.85
2023-02-05T21:56:05.889Z,13.27
2023-02-05T21:58:34.227Z,13.18
2023-02-05T22:01:11.586Z,13.13
2023-02-05T22:03:38.000Z,13.20
2023-02-05T22:06:06.817Z,12.40
2023-02-05T22:08:37.819Z,10.80
2023-02-05T22:11:07.272Z,10.63
2023-02-05T22:13:39.809Z,10.60
2023-02-05T22:16:09.517Z,9.88
2023-02-05T22:18:37.244Z,9.57
2023-02-05T22:21:08.434Z,9.52
2023-02-05T22:23:35.563Z,9.35
2023-02-05T22:26:02.113Z,9.00
2023-02-05T22:28:29.009Z,9.85
2023-02-05T22:31:06.508Z,9.35
2023-02-05T22:33:33.814Z,9.77
2023-02-05T22:36:00.466Z,9.85
2023-02-05T22:38:30.095Z,8.65
2023-02-05T22:40:56.515Z,8.70
2023-02-05T22:43:23.331Z,9.15
2023-02-05T22:45:49.833Z,8.55
2023-02-05T22:48:16.372Z,9.57
2023-02-05T22:50:44.270Z,8.02
2023-02-05T22:53:11.821Z,8.25
2023-02-05T22:55:39.617Z,8.23
2023-02-05T22:58:06.911Z,7.53
2023-02-05T23:00:33.891Z,7.38
2023-02-05T23:03:01.130Z,7.90
2023-02-05T23:05:33.247Z,7.93
2023-02-05T23:08:00.408Z,7.82
2023-02-05T23:10:27.672Z,7.97
2023-02-05T23:12:54.104Z,7.20
2023-02-05T23:15:20.590Z,7.70
2023-02-05T23:17:47.002Z,8.35
2023-02-05T23:20:13.474Z,7.35
2023-02-05T23:22:39.869Z,7.75
2023-02-05T23:25:06.925Z,8.05
2023-02-05T23:27:33.618Z,8.75
2023-02-05T23:30:00.272Z,7.88
2023-02-05T23:32:26.974Z,9.43
2023-02-05T23:34:53.607Z,8.52
2023-02-05T23:37:19.988Z,9.10
2023-02-05T23:39:46.576Z,9.38
2023-02-05T23:42:13.252Z,9.50
2023-02-05T23:44:39.751Z,9.77
2023-02-05T23:47:06.183Z,9.93
2023-02-05T23:49:32.556Z,10.02
2023-02-05T23:51:59.222Z,10.13
2023-02-05T23:54:25.616Z,10.98
2023-02-05T23:56:52.166Z,10.52
2023-02-05T23:59:18.808Z,11.02
